Time;durP1;ratioP1;P1;durP2;ratioP2;P2;SDS_P1;SDS_P2;PMS_P1;PMS_P2;Temp;Humidity;BMP_temperature;BMP_pressure;BME280_temperature;BME280_humidity;BME280_pressure;Samples;Min_cycle;Max_cycle;Signal;HPM_P1;HPM_P2
2023/06/22 00:01:30;;;;;;;5.80;5.30;;;;;;;22.33;100.00;98676.38;4144689;28;20216;-50
2023/06/22 00:03:32;;;;;;;5.50;5.00;;;;;;;22.41;100.00;98709.06;4137080;28;20222;-51
2023/06/22 00:05:33;;;;;;;8.68;6.25;;;;;;;22.54;100.00;98738.84;4150281;28;20306;-50
2023/06/22 00:07:35;;;;;;;6.20;5.80;;;;;;;22.67;100.00;98771.41;4146282;28;20208;-51
2023/06/22 00:09:37;;;;;;;6.28;5.85;;;;;;;22.73;100.00;98823.97;4149453;28;20212;-52
2023/06/22 00:11:39;;;;;;;7.55;6.95;;;;;;;22.46;100.00;98865.19;4137354;28;20634;-53
2023/06/22 00:13:40;;;;;;;7.00;6.47;;;;;;;22.25;100.00;98891.91;4148694;28;20299;-50
2023/06/22 00:15:42;;;;;;;6.50;6.00;;;;;;;22.02;100.00;98881.84;4148558;28;20229;-50
2023/06/22 00:17:44;;;;;;;7.90;7.30;;;;;;;22.11;100.00;98838.97;4148150;28;20299;-52
2023/06/22 00:19:53;;;;;;;6.65;6.15;;;;;;;22.01;100.00;98791.00;4146833;28;20576;-51
2023/06/22 00:21:55;;;;;;;7.72;7.07;;;;;;;21.71;100.00;98733.28;4147693;28;20209;-52
2023/06/22 00:23:57;;;;;;;9.45;8.65;;;;;;;21.41;100.00;98650.41;4141289;28;20209;-54
2023/06/22 00:25:58;;;;;;;7.88;7.28;;;;;;;21.32;100.00;98591.06;4141736;28;20290;-50
2023/06/22 00:28:02;;;;;;;9.25;8.18;;;;;;;21.30;100.00;98562.72;4137871;28;20275;-53
2023/06/22 00:30:04;;;;;;;10.32;9.02;;;;;;;21.27;100.00;98569.75;4168958;28;20618;-52
2023/06/22 00:32:06;;;;;;;8.50;7.80;;;;;;;21.33;100.00;98574.06;4140677;28;20216;-50
2023/06/22 00:34:08;;;;;;;7.28;6.78;;;;;;;21.54;100.00;98593.81;4148890;28;20301;-50
2023/06/22 00:36:13;;;;;;;8.80;7.57;;;;;;;21.72;100.00;98615.09;4140072;28;22123;-50
2023/06/22 00:38:14;;;;;;;7.97;7.22;;;;;;;21.86;100.00;98638.13;4135095;28;20644;-52
2023/06/22 00:40:21;;;;;;;7.68;6.63;;;;;;;21.94;100.00;98646.53;4164742;28;21004;-50
2023/06/22 00:42:23;;;;;;;6.97;6.45;;;;;;;22.05;100.00;98652.66;4135944;28;20245;-50
2023/06/22 00:44:24;;;;;;;7.25;6.60;;;;;;;22.15;100.00;98666.28;4154004;28;20207;-52
2023/06/22 00:46:26;;;;;;;6.45;5.85;;;;;;;22.21;100.00;98667.78;4150703;28;20259;-51
2023/06/22 00:48:28;;;;;;;6.68;6.18;;;;;;;22.34;100.00;98661.28;4128008;28;20214;-50
2023/06/22 00:50:35;;;;;;;7.07;6.57;;;;;;;22.33;100.00;98670.81;4135991;28;20208;-49
2023/06/22 00:52:43;;;;;;;7.65;6.93;;;;;;;22.34;100.00;98666.88;4137692;28;20205;-49
2023/06/22 00:54:45;;;;;;;6.43;5.93;;;;;;;22.35;100.00;98668.50;4159509;28;20266;-49
2023/06/22 00:56:46;;;;;;;6.55;6.05;;;;;;;22.35;100.00;98666.56;4133898;28;20316;-51
2023/06/22 00:58:52;;;;;;;7.25;6.55;;;;;;;22.38;100.00;98662.31;4133070;28;20209;-51
2023/06/22 01:00:54;;;;;;;7.95;6.65;;;;;;;22.41;100.00;98662.47;4132992;28;20209;-50
2023/06/22 01:02:56;;;;;;;7.90;7.30;;;;;;;22.32;100.00;98658.00;4133199;28;20202;-49
2023/06/22 01:04:58;;;;;;;7.53;6.93;;;;;;;22.35;100.00;98651.78;4133132;28;20767;-50
2023/06/22 01:07:13;;;;;;;8.15;7.55;;;;;;;22.33;100.00;98640.13;4151610;28;20621;-50
2023/06/22 01:09:21;;;;;;;7.25;6.65;;;;;;;22.05;100.00;98635.91;4146660;28;20204;-49
2023/06/22 01:11:33;;;;;;;7.93;7.35;;;;;;;22.19;100.00;98631.06;4136868;28;20674;-49
2023/06/22 01:13:59;;;;;;;8.65;7.88;;;;;;;22.06;100.00;98632.00;4141276;28;20204;-49
2023/06/22 01:16:29;;;;;;;7.15;6.45;;;;;;;21.98;100.00;98621.63;4146881;28;20228;-51
2023/06/22 01:18:33;;;;;;;7.78;6.97;;;;;;;21.70;100.00;98620.19;4133084;28;20215;-49
2023/06/22 01:20:35;;;;;;;8.63;8.02;;;;;;;21.86;100.00;98616.66;4133513;28;20204;-50
2023/06/22 01:23:00;;;;;;;8.95;8.25;;;;;;;21.66;100.00;98596.84;4132561;28;20240;-51
2023/06/22 01:25:14;;;;;;;7.80;7.30;;;;;;;21.60;100.00;98584.19;4134534;28;20241;-52
2023/06/22 01:27:34;;;;;;;13.52;7.15;;;;;;;21.62;100.00;98588.31;4164912;28;20200;-50
2023/06/22 01:29:37;;;;;;;8.73;6.95;;;;;;;21.66;100.00;98585.69;4150364;28;20228;-49
2023/06/22 01:31:39;;;;;;;7.20;6.70;;;;;;;21.49;100.00;98582.81;4139256;28;20221;-49
2023/06/22 01:33:43;;;;;;;7.15;6.45;;;;;;;21.45;100.00;98590.97;4141321;28;20214;-50
2023/06/22 01:35:44;;;;;;;7.43;6.82;;;;;;;21.51;100.00;98594.47;4140172;28;20602;-49
2023/06/22 01:37:48;;;;;;;7.68;7.03;;;;;;;21.51;100.00;98592.50;4151413;28;20224;-50
2023/06/22 01:39:50;;;;;;;10.95;6.43;;;;;;;21.62;100.00;98590.25;4154186;28;20200;-50
2023/06/22 01:41:53;;;;;;;6.55;6.13;;;;;;;21.70;100.00;98600.69;4136157;28;20338;-50
2023/06/22 01:43:55;;;;;;;7.18;6.60;;;;;;;21.78;100.00;98608.25;4133465;28;20757;-49
2023/06/22 01:45:59;;;;;;;6.97;6.47;;;;;;;21.68;100.00;98605.72;4135225;28;20221;-52
2023/06/22 01:48:01;;;;;;;6.50;5.90;;;;;;;21.58;100.00;98597.63;4147861;28;20236;-50
2023/06/22 01:50:04;;;;;;;7.18;6.53;;;;;;;21.66;100.00;98591.28;4139584;28;20236;-51
2023/06/22 01:52:06;;;;;;;7.30;6.63;;;;;;;21.77;100.00;98598.25;4131438;28;20213;-50
2023/06/22 01:54:08;;;;;;;7.75;7.10;;;;;;;21.82;100.00;98609.25;4164321;28;20294;-51
2023/06/22 01:56:09;;;;;;;7.32;6.57;;;;;;;21.56;100.00;98605.47;4134632;28;20263;-50
2023/06/22 01:58:12;;;;;;;7.00;6.40;;;;;;;21.57;100.00;98596.78;4147937;28;20229;-52
2023/06/22 02:00:18;;;;;;;7.35;6.63;;;;;;;21.65;100.00;98595.19;4138548;28;20671;-53
2023/06/22 02:02:26;;;;;;;6.47;5.97;;;;;;;21.62;100.00;98584.69;4132957;28;20213;-50
2023/06/22 02:04:43;;;;;;;6.30;5.90;;;;;;;21.65;100.00;98586.84;4140802;28;20219;-52
2023/06/22 02:06:45;;;;;;;6.47;6.00;;;;;;;21.67;100.00;98593.78;4148328;28;20200;-53
2023/06/22 02:08:57;;;;;;;5.57;5.18;;;;;;;21.74;100.00;98579.38;4148766;28;20204;-50
2023/06/22 02:11:00;;;;;;;6.35;5.88;;;;;;;21.57;100.00;98584.84;4133083;28;20251;-51
2023/06/22 02:13:05;;;;;;;5.75;5.35;;;;;;;21.58;100.00;98575.34;4133990;28;20645;-49
2023/06/22 02:15:08;;;;;;;6.90;6.20;;;;;;;21.58;100.00;98578.13;4145293;28;20232;-52
2023/06/22 02:17:10;;;;;;;6.25;5.85;;;;;;;21.55;100.00;98587.09;4138613;28;20274;-51
2023/06/22 02:19:11;;;;;;;6.22;5.72;;;;;;;21.54;100.00;98585.47;4133097;28;20206;-53
2023/06/22 02:21:14;;;;;;;6.32;5.82;;;;;;;21.54;100.00;98588.25;4134573;28;20212;-50
2023/06/22 02:23:15;;;;;;;6.45;5.85;;;;;;;21.56;100.00;98583.19;4164968;28;20692;-51
2023/06/22 02:25:17;;;;;;;5.85;5.35;;;;;;;21.51;100.00;98589.72;4151702;28;20232;-52
2023/06/22 02:27:19;;;;;;;8.00;7.40;;;;;;;21.40;100.00;98581.94;4150419;28;20204;-52
2023/06/22 02:29:20;;;;;;;6.68;6.10;;;;;;;21.42;100.00;98574.09;4141757;28;20699;-51
2023/06/22 02:31:22;;;;;;;8.02;7.43;;;;;;;21.25;100.00;98566.44;4141865;28;20231;-52
2023/06/22 02:33:24;;;;;;;7.28;6.72;;;;;;;21.13;100.00;98562.59;4135090;28;20215;-52
2023/06/22 02:35:35;;;;;;;7.45;6.85;;;;;;;21.11;100.00;98560.13;4142500;28;20240;-52
2023/06/22 02:37:41;;;;;;;6.80;5.93;;;;;;;21.15;100.00;98554.75;4141842;28;20270;-50
2023/06/22 02:39:43;;;;;;;6.55;6.03;;;;;;;21.23;100.00;98556.78;4138450;28;20500;-51
2023/06/22 02:41:45;;;;;;;6.65;6.15;;;;;;;21.24;100.00;98552.88;4168822;28;20620;-50
2023/06/22 02:43:47;;;;;;;6.97;6.43;;;;;;;21.23;100.00;98545.66;4155058;28;20220;-50
2023/06/22 02:45:48;;;;;;;7.10;6.45;;;;;;;21.13;100.00;98545.91;4133757;28;20369;-51
2023/06/22 02:47:50;;;;;;;6.57;6.07;;;;;;;21.11;100.00;98542.63;4138774;28;20210;-50
2023/06/22 02:49:52;;;;;;;6.85;6.25;;;;;;;21.07;100.00;98548.00;4167602;28;20204;-52
2023/06/22 02:51:55;;;;;;;6.78;6.18;;;;;;;21.07;100.00;98534.09;4137547;28;20205;-50
2023/06/22 02:53:57;;;;;;;6.82;6.32;;;;;;;21.07;100.00;98539.66;4135305;28;20747;-51
2023/06/22 02:56:01;;;;;;;6.38;5.78;;;;;;;21.07;100.00;98536.03;4148665;28;20242;-52
2023/06/22 02:58:04;;;;;;;5.90;5.40;;;;;;;21.07;100.00;98531.31;4151438;28;20282;-51
2023/06/22 03:00:17;;;;;;;6.65;5.90;;;;;;;21.16;100.00;98534.97;4135275;28;20210;-52
2023/06/22 03:02:21;;;;;;;6.65;6.15;;;;;;;21.12;100.00;98533.94;4134299;28;20274;-52
2023/06/22 03:04:23;;;;;;;6.18;5.72;;;;;;;21.11;100.00;98534.28;4147899;28;20236;-50
2023/06/22 03:06:28;;;;;;;6.95;6.35;;;;;;;21.10;100.00;98535.44;4141874;28;20204;-50
2023/06/22 03:08:30;;;;;;;6.20;5.80;;;;;;;21.04;100.00;98531.13;4165922;28;20260;-51
2023/06/22 03:10:31;;;;;;;6.30;5.63;;;;;;;21.02;100.00;98523.09;4151290;28;20565;-51
2023/06/22 03:12:33;;;;;;;7.18;6.45;;;;;;;21.05;100.00;98522.44;4167829;28;20653;-50
2023/06/22 03:14:35;;;;;;;7.28;6.78;;;;;;;21.05;100.00;98521.63;4136032;28;20205;-51
2023/06/22 03:16:37;;;;;;;9.75;7.47;;;;;;;20.99;100.00;98523.69;4151939;28;20659;-52
2023/06/22 03:18:38;;;;;;;6.03;5.63;;;;;;;20.85;100.00;98519.34;4148798;28;21125;-50
2023/06/22 03:20:40;;;;;;;6.47;5.97;;;;;;;20.92;100.00;98525.31;4149662;28;20757;-51
2023/06/22 03:22:43;;;;;;;7.53;6.90;;;;;;;20.91;100.00;98526.44;4133758;28;20202;-50
2023/06/22 03:24:44;;;;;;;6.85;6.28;;;;;;;20.86;100.00;98526.53;4132600;28;20292;-51
2023/06/22 03:26:49;;;;;;;6.57;6.10;;;;;;;20.84;100.00;98531.59;4134918;28;20230;-50
2023/06/22 03:28:50;;;;;;;5.43;5.10;;;;;;;20.82;100.00;98534.69;4138724;28;20303;-50
2023/06/22 03:30:52;;;;;;;6.57;6.07;;;;;;;20.85;100.00;98538.81;4136401;28;20624;-52
2023/06/22 03:32:54;;;;;;;7.05;6.55;;;;;;;20.80;100.00;98531.41;4144671;28;20201;-52
2023/06/22 03:34:58;;;;;;;6.57;6.07;;;;;;;20.85;100.00;98538.81;4160689;28;20228;-50
2023/06/22 03:37:00;;;;;;;6.18;5.78;;;;;;;20.78;100.00;98527.28;4146009;28;20205;-50
2023/06/22 03:39:02;;;;;;;6.70;6.10;;;;;;;20.76;100.00;98529.56;4153755;28;20217;-50
2023/06/22 03:41:03;;;;;;;6.90;6.40;;;;;;;20.80;100.00;98536.13;4152448;28;20236;-51
2023/06/22 03:43:05;;;;;;;8.50;6.55;;;;;;;20.78;100.00;98544.00;4135770;28;20220;-53
2023/06/22 03:45:07;;;;;;;4.85;4.55;;;;;;;20.80;100.00;98536.97;4140335;28;20237;-53
2023/06/22 03:47:09;;;;;;;6.30;5.82;;;;;;;20.84;100.00;98534.38;4134288;28;20206;-53
2023/06/22 03:49:11;;;;;;;6.22;5.72;;;;;;;20.80;100.00;98536.13;4163922;28;20196;-50
2023/06/22 03:51:13;;;;;;;5.70;5.30;;;;;;;20.78;100.00;98538.44;4148456;28;20200;-51
2023/06/22 03:53:14;;;;;;;7.55;6.90;;;;;;;20.82;100.00;98539.41;4143303;28;20212;-50
2023/06/22 03:55:16;;;;;;;6.72;6.15;;;;;;;20.76;100.00;98543.47;4169781;28;20239;-53
2023/06/22 03:57:18;;;;;;;6.90;6.40;;;;;;;20.77;100.00;98548.72;4143160;28;20251;-52
2023/06/22 03:59:20;;;;;;;6.03;5.55;;;;;;;20.76;100.00;98537.91;4151307;28;20882;-51
2023/06/22 04:01:21;;;;;;;5.97;5.57;;;;;;;20.76;100.00;98543.47;4141989;28;20205;-52
2023/06/22 04:03:23;;;;;;;6.63;6.13;;;;;;;20.77;100.00;98545.13;4136955;28;20271;-50
2023/06/22 04:05:25;;;;;;;6.35;5.95;;;;;;;20.75;100.00;98544.59;4134961;28;20229;-52
2023/06/22 04:07:27;;;;;;;6.55;6.15;;;;;;;20.69;100.00;98543.06;4136295;28;20205;-51
2023/06/22 04:09:28;;;;;;;6.50;5.88;;;;;;;20.68;100.00;98544.22;4147526;28;20646;-51
2023/06/22 04:11:30;;;;;;;6.78;6.18;;;;;;;20.67;100.00;98542.56;4158078;28;20204;-50
2023/06/22 04:13:32;;;;;;;6.97;6.38;;;;;;;20.62;100.00;98545.47;4150753;28;20695;-50
2023/06/22 04:15:33;;;;;;;6.10;5.68;;;;;;;20.58;100.00;98541.69;4150692;28;20232;-50
2023/06/22 04:17:35;;;;;;;5.85;5.38;;;;;;;20.58;100.00;98538.91;4136522;28;20221;-50
2023/06/22 04:19:37;;;;;;;6.05;5.65;;;;;;;20.59;100.00;98546.91;4135987;28;20787;-51
2023/06/22 04:21:38;;;;;;;7.13;6.63;;;;;;;20.57;100.00;98538.06;4142369;28;20652;-51
2023/06/22 04:23:40;;;;;;;6.18;5.78;;;;;;;20.61;100.00;98538.28;4149258;28;20753;-50
2023/06/22 04:25:42;;;;;;;7.90;7.22;;;;;;;20.70;100.00;98541.97;4136101;28;20229;-50
2023/06/22 04:27:43;;;;;;;7.32;6.72;;;;;;;20.62;100.00;98545.47;4136941;28;20266;-51
2023/06/22 04:29:48;;;;;;;6.38;5.90;;;;;;;20.68;100.00;98533.09;4151555;28;20250;-51
2023/06/22 04:31:50;;;;;;;8.23;7.60;;;;;;;20.37;100.00;98532.19;4150711;28;20267;-50
2023/06/22 04:33:53;;;;;;;8.05;7.38;;;;;;;20.14;100.00;98522.13;4137196;28;20220;-50
2023/06/22 04:35:56;;;;;;;7.88;6.82;;;;;;;20.35;100.00;98523.31;4148855;28;20228;-50
2023/06/22 04:37:58;;;;;;;8.32;7.72;;;;;;;20.41;100.00;98533.19;4167422;28;20232;-50
2023/06/22 04:40:00;;;;;;;10.13;7.40;;;;;;;20.41;100.00;98536.78;4163462;28;20278;-52
2023/06/22 04:42:02;;;;;;;9.00;8.30;;;;;;;20.42;100.00;98535.66;4151290;28;20209;-51
2023/06/22 04:44:05;;;;;;;6.95;6.45;;;;;;;20.39;100.00;98539.03;4134965;28;20217;-50
2023/06/22 04:46:06;;;;;;;7.38;6.88;;;;;;;20.18;100.00;98532.31;4135375;28;20248;-51
2023/06/22 04:48:09;;;;;;;8.73;8.10;;;;;;;20.28;100.00;98526.53;4135241;28;20208;-50
2023/06/22 04:50:14;;;;;;;8.57;7.97;;;;;;;20.23;100.00;98515.53;4143067;28;20208;-51
2023/06/22 04:52:17;;;;;;;10.30;8.77;;;;;;;20.00;100.00;98510.19;4143667;28;20263;-53
2023/06/22 04:54:19;;;;;;;7.78;6.88;;;;;;;19.78;100.00;98502.59;4136019;28;20240;-51
2023/06/22 04:56:21;;;;;;;7.85;7.35;;;;;;;19.98;100.00;98507.69;4136680;28;20407;-53
2023/06/22 04:58:23;;;;;;;7.95;7.25;;;;;;;20.21;100.00;98511.41;4138146;28;20227;-50
2023/06/22 05:00:24;;;;;;;8.65;8.02;;;;;;;20.42;100.00;98507.03;4150302;28;20691;-52
2023/06/22 05:02:31;;;;;;;8.43;7.72;;;;;;;20.30;100.00;98520.66;4136778;28;20209;-51
2023/06/22 05:04:35;;;;;;;8.98;7.43;;;;;;;20.34;100.00;98516.09;4140380;28;20227;-50
2023/06/22 05:06:37;;;;;;;9.40;8.60;;;;;;;20.42;100.00;98510.63;4168138;28;20212;-50
2023/06/22 05:08:41;;;;;;;8.10;7.32;;;;;;;20.47;100.00;98510.53;4151176;28;20203;-51
2023/06/22 05:10:43;;;;;;;9.90;8.95;;;;;;;20.36;100.00;98511.06;4135592;28;20212;-52
2023/06/22 05:13:04;;;;;;;8.23;7.63;;;;;;;20.55;100.00;98500.59;4134734;28;20209;-50
2023/06/22 05:15:09;;;;;;;8.82;8.23;;;;;;;20.65;100.00;98500.34;4151203;28;20229;-51
2023/06/22 05:17:13;;;;;;;8.70;8.05;;;;;;;20.81;100.00;98494.09;4133384;28;20216;-52
2023/06/22 05:19:20;;;;;;;10.23;8.50;;;;;;;20.63;100.00;98494.28;4148024;28;20229;-50
2023/06/22 05:21:23;;;;;;;9.20;8.45;;;;;;;20.53;100.00;98497.31;4135881;28;20217;-51
2023/06/22 05:23:25;;;;;;;11.35;10.45;;;;;;;20.51;100.00;98494.03;4147700;28;20213;-52
2023/06/22 05:25:29;;;;;;;10.75;9.77;;;;;;;20.62;100.00;98493.47;4135226;28;20232;-50
2023/06/22 05:27:31;;;;;;;11.98;10.88;;;;;;;20.54;100.00;98498.94;4134356;28;20212;-50
2023/06/22 05:29:33;;;;;;;10.07;9.40;;;;;;;20.77;100.00;98497.84;4137455;28;20774;-50
2023/06/22 05:31:35;;;;;;;13.38;12.15;;;;;;;20.88;100.00;98499.25;4132181;28;20206;-50
2023/06/22 05:33:36;;;;;;;11.07;10.23;;;;;;;20.93;100.00;98502.72;4130612;28;20220;-51
2023/06/22 05:35:38;;;;;;;12.32;11.52;;;;;;;20.99;100.00;98495.06;4161462;28;20242;-52
2023/06/22 05:37:40;;;;;;;12.13;11.27;;;;;;;21.07;100.00;98497.06;4161604;28;20230;-50
2023/06/22 05:39:41;;;;;;;12.10;11.20;;;;;;;21.10;100.00;98499.25;4137898;28;20262;-51
2023/06/22 05:41:44;;;;;;;9.43;8.77;;;;;;;21.28;100.00;98498.19;4136427;28;20599;-50
2023/06/22 05:43:45;;;;;;;12.90;11.63;;;;;;;21.39;100.00;98499.56;4132020;28;20587;-51
2023/06/22 05:45:47;;;;;;;12.05;11.15;;;;;;;21.45;100.00;98498.28;4151554;28;21510;-50
2023/06/22 05:47:49;;;;;;;13.20;11.75;;;;;;;21.43;100.00;98495.00;4138146;28;20221;-52
2023/06/22 05:49:51;;;;;;;14.23;12.05;;;;;;;21.25;100.00;98494.06;4138101;28;20266;-51
2023/06/22 05:51:53;;;;;;;12.73;11.82;;;;;;;21.33;100.00;98489.69;4133500;28;20227;-52
2023/06/22 05:53:54;;;;;;;12.25;11.35;;;;;;;21.54;100.00;98485.19;4135875;28;20220;-49
2023/06/22 05:55:56;;;;;;;12.75;11.55;;;;;;;21.68;100.00;98491.50;4142115;28;20286;-52
2023/06/22 05:57:58;;;;;;;12.43;11.57;;;;;;;21.62;100.00;98487.19;4144363;28;20320;-50
2023/06/22 05:59:59;;;;;;;12.80;11.75;;;;;;;21.66;100.00;98494.63;4130414;28;22283;-53
2023/06/22 06:02:01;;;;;;;11.25;10.38;;;;;;;21.90;100.00;98500.59;4161796;28;20220;-50
2023/06/22 06:04:03;;;;;;;12.18;11.23;;;;;;;21.99;100.00;98495.06;4133559;28;20231;-49
2023/06/22 06:06:06;;;;;;;11.68;10.70;;;;;;;21.86;100.00;98487.63;4145656;28;20266;-52
2023/06/22 06:08:10;;;;;;;12.57;11.50;;;;;;;21.88;100.00;98491.75;4162161;28;20628;-51
2023/06/22 06:10:13;;;;;;;12.07;11.07;;;;;;;22.02;100.00;98494.38;4131479;28;20255;-51
2023/06/22 06:12:14;;;;;;;12.60;11.48;;;;;;;22.00;100.00;98499.47;4135312;28;20271;-49
2023/06/22 06:14:17;;;;;;;12.20;11.23;;;;;;;22.06;100.00;98498.19;4131592;28;20200;-53
2023/06/22 06:16:18;;;;;;;11.20;10.30;;;;;;;22.03;100.00;98502.44;4151680;28;20256;-49
2023/06/22 06:18:21;;;;;;;12.07;11.23;;;;;;;22.05;100.00;98497.34;4145369;28;20591;-48
2023/06/22 06:20:25;;;;;;;12.55;11.50;;;;;;;22.27;100.00;98493.63;4166400;28;20208;-49
2023/06/22 06:22:28;;;;;;;10.65;9.85;;;;;;;22.34;100.00;98493.94;4142658;28;20593;-49
2023/06/22 06:24:29;;;;;;;11.07;10.13;;;;;;;22.30;100.00;98498.56;4157294;28;20215;-49
2023/06/22 06:26:32;;;;;;;12.55;11.40;;;;;;;22.67;100.00;98497.94;4143362;28;20662;-50
2023/06/22 06:28:34;;;;;;;10.43;9.63;;;;;;;22.63;100.00;98492.19;4130072;28;20693;-50
2023/06/22 06:30:37;;;;;;;9.93;9.23;;;;;;;22.66;100.00;98480.41;4128691;28;20209;-50
2023/06/22 06:32:39;;;;;;;9.85;9.05;;;;;;;22.70;100.00;98478.56;4131073;28;20208;-50
2023/06/22 06:34:41;;;;;;;10.52;9.60;;;;;;;22.90;100.00;98474.28;4147935;28;20354;-50
2023/06/22 06:36:44;;;;;;;11.88;9.45;;;;;;;23.03;100.00;98481.66;4162648;28;20204;-49
2023/06/22 06:38:47;;;;;;;10.70;10.00;;;;;;;23.24;100.00;98483.44;4147381;28;20266;-50
2023/06/22 06:40:48;;;;;;;8.95;8.35;;;;;;;23.32;100.00;98482.59;4129977;28;20209;-49
2023/06/22 06:42:50;;;;;;;9.68;8.75;;;;;;;23.56;100.00;98482.81;4161141;28;20286;-50
2023/06/22 06:44:52;;;;;;;10.70;9.35;;;;;;;23.20;100.00;98484.44;4135636;28;20287;-50
2023/06/22 06:47:03;;;;;;;10.48;9.50;;;;;;;23.45;100.00;98492.72;4150200;28;20251;-49
2023/06/22 06:49:13;;;;;;;8.55;7.90;;;;;;;23.67;100.00;98480.47;4132554;28;20271;-51
2023/06/22 06:51:15;;;;;;;7.63;7.13;;;;;;;23.77;100.00;98478.97;4149041;28;20746;-49
2023/06/22 06:53:26;;;;;;;7.88;7.28;;;;;;;23.90;100.00;98473.50;4152753;28;20197;-50
2023/06/22 06:55:30;;;;;;;8.50;7.82;;;;;;;23.79;100.00;98470.25;4135565;28;21076;-51
2023/06/22 06:57:33;;;;;;;8.68;8.07;;;;;;;23.88;100.00;98473.00;4133444;28;20613;-51
2023/06/22 06:59:45;;;;;;;8.13;7.32;;;;;;;23.98;100.00;98468.66;4153033;28;20233;-51
2023/06/22 07:01:48;;;;;;;8.63;8.00;;;;;;;24.30;100.00;98481.13;4136501;28;20204;-50
2023/06/22 07:03:50;;;;;;;8.02;7.32;;;;;;;24.27;99.96;98481.81;4151594;28;20239;-50
2023/06/22 07:05:59;;;;;;;8.02;7.32;;;;;;;24.36;99.17;98479.75;4150096;28;20223;-51
2023/06/22 07:08:01;;;;;;;7.90;7.30;;;;;;;24.18;100.00;98473.47;4134001;28;20207;-51
2023/06/22 07:10:05;;;;;;;8.85;8.10;;;;;;;24.04;98.28;98467.31;4135398;28;20212;-51
2023/06/22 07:12:08;;;;;;;8.40;7.70;;;;;;;24.12;98.55;98469.25;4138087;28;20289;-51
2023/06/22 07:14:09;;;;;;;8.07;7.47;;;;;;;24.35;98.93;98473.38;4141749;28;20209;-50
2023/06/22 07:16:11;;;;;;;7.82;7.22;;;;;;;24.27;98.67;98471.44;4143327;28;20251;-50
2023/06/22 07:18:13;;;;;;;7.72;7.13;;;;;;;24.62;98.22;98472.84;4137683;28;20268;-52
2023/06/22 07:20:26;;;;;;;8.50;7.80;;;;;;;24.53;95.72;98472.06;4142768;28;20245;-51
2023/06/22 07:22:37;;;;;;;7.95;7.13;;;;;;;24.85;97.15;98488.09;4138934;28;20569;-51
2023/06/22 07:24:53;;;;;;;8.57;7.88;;;;;;;24.72;94.20;98486.41;4168411;28;20228;-49
2023/06/22 07:26:54;;;;;;;6.80;6.20;;;;;;;24.99;93.59;98483.03;4169629;28;20208;-50
2023/06/22 07:29:04;;;;;;;7.40;6.22;;;;;;;25.22;96.09;98472.25;4135189;28;20202;-50
2023/06/22 07:31:16;;;;;;;6.40;5.80;;;;;;;25.24;92.64;98483.94;4138248;28;20197;-49
2023/06/22 07:33:18;;;;;;;8.50;7.53;;;;;;;24.88;93.53;98476.25;4136965;28;20256;-48
2023/06/22 07:35:20;;;;;;;7.50;6.85;;;;;;;24.77;94.87;98472.22;4139704;28;20937;-49
2023/06/22 07:37:28;;;;;;;9.32;7.05;;;;;;;25.00;92.58;98467.84;4163702;28;20211;-49
2023/06/22 07:39:44;;;;;;;7.07;6.40;;;;;;;25.08;94.58;98455.78;4137095;28;20260;-50
2023/06/22 07:41:59;;;;;;;6.30;5.80;;;;;;;25.55;93.00;98454.25;4145670;28;20215;-50
2023/06/22 07:44:14;;;;;;;5.93;5.43;;;;;;;25.47;90.00;98457.97;4136667;28;20196;-49
2023/06/22 07:46:22;;;;;;;6.57;6.07;;;;;;;25.61;88.93;98458.47;4137112;28;20546;-49
2023/06/22 07:48:24;;;;;;;9.23;6.10;;;;;;;25.69;88.12;98449.13;4140910;28;20200;-49
2023/06/22 07:50:26;;;;;;;8.32;5.63;;;;;;;25.61;87.26;98455.66;4137337;28;20264;-50
2023/06/22 07:52:39;;;;;;;5.97;5.47;;;;;;;25.28;87.75;98443.72;4145553;28;20213;-50
2023/06/22 07:54:41;;;;;;;6.18;5.68;;;;;;;25.35;89.92;98443.94;4135611;28;20240;-50
2023/06/22 07:56:43;;;;;;;7.00;6.40;;;;;;;25.49;89.36;98441.63;4135141;28;20197;-50
2023/06/22 07:58:45;;;;;;;9.07;6.88;;;;;;;25.33;91.04;98434.25;4140307;28;20220;-49
2023/06/22 08:01:03;;;;;;;6.55;6.05;;;;;;;25.29;88.74;98433.31;4142731;28;20255;-50
2023/06/22 08:03:23;;;;;;;7.63;7.03;;;;;;;25.20;89.92;98427.75;4141055;28;20205;-49
2023/06/22 08:05:27;;;;;;;7.57;6.88;;;;;;;25.06;90.79;98427.25;4141409;28;20237;-51
2023/06/22 08:07:29;;;;;;;7.97;6.47;;;;;;;25.15;90.34;98433.59;4134003;28;20456;-51
2023/06/22 08:09:32;;;;;;;7.10;5.97;;;;;;;25.04;90.42;98439.97;4132745;28;20251;-50
2023/06/22 08:11:34;;;;;;;9.40;6.10;;;;;;;25.05;89.66;98431.22;4139133;28;20212;-51
2023/06/22 08:13:35;;;;;;;8.20;6.78;;;;;;;25.18;89.78;98427.31;4133139;28;20217;-53
2023/06/22 08:15:37;;;;;;;8.23;6.72;;;;;;;25.38;88.31;98428.41;4134228;28;20616;-51
2023/06/22 08:17:39;;;;;;;7.28;6.68;;;;;;;25.57;87.59;98423.88;4135308;28;20209;-50
2023/06/22 08:19:41;;;;;;;6.82;6.32;;;;;;;25.91;87.73;98431.84;4131933;28;20255;-53
2023/06/22 08:21:43;;;;;;;6.57;6.07;;;;;;;26.25;87.53;98414.50;4134775;28;20214;-50
2023/06/22 08:23:44;;;;;;;6.70;6.10;;;;;;;26.48;86.24;98415.59;4148721;28;20208;-50
2023/06/22 08:25:47;;;;;;;7.97;7.28;;;;;;;26.74;83.85;98413.19;4137812;28;20711;-53
2023/06/22 08:27:49;;;;;;;7.65;6.45;;;;;;;26.27;82.95;98412.13;4146714;28;20321;-52
2023/06/22 08:29:54;;;;;;;6.68;6.07;;;;;;;26.17;85.65;98411.81;4144014;28;20316;-52
2023/06/22 08:31:56;;;;;;;6.95;6.22;;;;;;;26.45;83.69;98412.69;4132324;28;20721;-50
2023/06/22 08:33:58;;;;;;;6.93;6.43;;;;;;;26.34;83.17;98406.78;4133595;28;20224;-51
2023/06/22 08:36:00;;;;;;;7.85;5.82;;;;;;;26.46;83.62;98412.31;4148209;28;20235;-52
2023/06/22 08:38:04;;;;;;;8.30;6.70;;;;;;;26.35;82.21;98414.00;4135155;28;20291;-52
2023/06/22 08:40:09;;;;;;;8.07;7.18;;;;;;;26.73;82.46;98408.72;4147737;28;20720;-51
2023/06/22 08:42:11;;;;;;;7.25;6.00;;;;;;;26.71;82.27;98410.25;4146810;28;20208;-50
2023/06/22 08:44:14;;;;;;;7.50;6.80;;;;;;;26.54;82.64;98419.84;4147199;28;20220;-50
2023/06/22 08:46:21;;;;;;;6.65;6.05;;;;;;;26.45;83.15;98409.88;4133966;28;20404;-51
2023/06/22 08:48:23;;;;;;;5.97;5.57;;;;;;;26.25;84.30;98413.69;4130367;28;20250;-51
2023/06/22 08:50:25;;;;;;;6.95;6.43;;;;;;;26.04;84.82;98427.88;4142184;28;20204;-50
2023/06/22 08:52:26;;;;;;;7.38;6.78;;;;;;;26.13;84.88;98422.13;4149896;28;20218;-49
2023/06/22 08:54:28;;;;;;;6.75;6.20;;;;;;;26.14;83.51;98412.53;4151189;28;20698;-50
2023/06/22 08:56:30;;;;;;;6.85;6.30;;;;;;;26.34;82.49;98403.97;4139411;28;20212;-50
2023/06/22 08:58:32;;;;;;;6.32;5.82;;;;;;;26.06;81.24;98389.03;4143428;28;20209;-50
2023/06/22 09:00:34;;;;;;;5.65;5.22;;;;;;;25.88;80.40;98390.47;4137512;28;20277;-50
2023/06/22 09:02:36;;;;;;;6.95;5.70;;;;;;;25.96;81.23;98392.34;4139401;28;20213;-49
2023/06/22 09:04:38;;;;;;;5.93;5.43;;;;;;;25.86;79.57;98406.81;4138189;28;20244;-51
2023/06/22 09:06:44;;;;;;;5.00;4.60;;;;;;;25.84;81.47;98403.53;4137050;28;20232;-51
2023/06/22 09:08:46;;;;;;;6.32;5.03;;;;;;;25.83;80.80;98407.53;4143399;28;20651;-50
2023/06/22 09:10:48;;;;;;;5.53;5.07;;;;;;;25.93;80.99;98395.84;4137208;28;20994;-51
2023/06/22 09:12:50;;;;;;;5.50;5.05;;;;;;;26.10;80.08;98395.59;4163090;28;20204;-52
2023/06/22 09:14:52;;;;;;;6.00;5.50;;;;;;;26.32;80.99;98389.44;4135892;28;20228;-50
2023/06/22 09:16:53;;;;;;;6.72;6.10;;;;;;;26.66;78.72;98380.44;4154645;28;20743;-50
2023/06/22 09:18:55;;;;;;;5.80;5.35;;;;;;;26.82;77.59;98375.72;4136685;28;20240;-51
2023/06/22 09:20:57;;;;;;;6.70;6.18;;;;;;;26.84;77.58;98376.16;4139082;28;20259;-50
2023/06/22 09:22:59;;;;;;;5.82;5.32;;;;;;;26.86;77.84;98378.63;4143930;28;20729;-51
2023/06/22 09:25:01;;;;;;;6.53;6.00;;;;;;;26.91;77.52;98375.53;4150283;28;20236;-50
2023/06/22 09:27:03;;;;;;;6.82;6.22;;;;;;;27.15;77.82;98373.44;4138374;28;20205;-50
2023/06/22 09:29:05;;;;;;;8.75;5.53;;;;;;;27.50;76.72;98368.72;4151176;28;20287;-50
2023/06/22 09:31:07;;;;;;;6.07;5.57;;;;;;;27.62;75.50;98371.44;4138407;28;20217;-49
2023/06/22 09:33:09;;;;;;;7.70;7.10;;;;;;;27.64;75.12;98363.44;4136747;28;20221;-49
2023/06/22 09:35:12;;;;;;;5.70;5.25;;;;;;;28.12;72.43;98365.78;4154955;28;20232;-50